createdAt,value
2022-12-14T00:01:39.875Z,20.02
2022-12-14T00:04:06.951Z,20.15
2022-12-14T00:06:34.513Z,20.02
2022-12-14T00:09:04.238Z,20.63
2022-12-14T00:11:34.187Z,19.95
2022-12-14T00:14:03.532Z,21.10
2022-12-14T00:16:33.171Z,19.38
2022-12-14T00:19:01.892Z,19.35
2022-12-14T00:21:29.214Z,16.55
2022-12-14T00:23:59.905Z,17.13
2022-12-14T00:26:29.832Z,18.38
2022-12-14T00:28:58.810Z,22.38
2022-12-14T00:31:26.640Z,18.35
2022-12-14T00:33:54.755Z,17.88
2022-12-14T00:36:21.996Z,20.80
2022-12-14T00:38:49.107Z,17.10
2022-12-14T00:41:16.130Z,21.83
2022-12-14T00:43:43.103Z,22.30
2022-12-14T00:46:10.188Z,16.63
2022-12-14T00:48:37.122Z,17.83
2022-12-14T00:51:04.344Z,20.75
2022-12-14T00:53:31.342Z,18.70
2022-12-14T00:56:05.842Z,20.50
2022-12-14T00:58:32.919Z,18.98
2022-12-14T01:01:05.966Z,17.50
2022-12-14T01:03:34.025Z,18.15
2022-12-14T01:06:01.835Z,18.63
2022-12-14T01:08:47.192Z,20.13
2022-12-14T01:11:15.456Z,18.75
2022-12-14T01:13:42.839Z,21.30
2022-12-14T01:16:13.331Z,19.55
2022-12-14T01:18:42.333Z,20.88
2022-12-14T01:21:18.118Z,17.20
2022-12-14T01:23:46.475Z,20.75
2022-12-14T01:26:15.717Z,20.30
2022-12-14T01:28:43.158Z,17.45
2022-12-14T01:31:16.052Z,19.52
2022-12-14T01:33:43.201Z,17.73
2022-12-14T01:36:14.416Z,21.65
2022-12-14T01:38:41.538Z,19.63
2022-12-14T01:41:17.105Z,18.60
2022-12-14T01:44:24.579Z,18.75
2022-12-14T01:49:33.386Z,18.13
2022-12-14T01:52:18.907Z,18.63
2022-12-14T01:54:57.446Z,17.17
2022-12-14T01:57:36.642Z,17.33
2022-12-14T02:00:07.531Z,17.92
2022-12-14T02:02:38.102Z,22.45
2022-12-14T02:05:09.569Z,15.65
2022-12-14T02:07:38.167Z,18.52
2022-12-14T02:10:07.014Z,17.63
2022-12-14T02:12:40.087Z,18.20
2022-12-14T02:15:07.975Z,16.30
2022-12-14T02:17:35.207Z,18.10
2022-12-14T02:20:04.400Z,16.60
2022-12-14T02:22:57.538Z,16.92
2022-12-14T02:25:49.454Z,17.20
2022-12-14T02:28:58.660Z,20.17
2022-12-14T02:31:49.099Z,18.00
2022-12-14T02:34:42.201Z,18.48
2022-12-14T02:37:36.524Z,15.85
2022-12-14T02:40:19.674Z,18.10
2022-12-14T02:42:57.786Z,17.42
2022-12-14T02:45:39.870Z,15.73
2022-12-14T02:48:12.708Z,16.80
2022-12-14T02:50:39.926Z,15.75
2022-12-14T02:53:14.843Z,19.48
2022-12-14T02:55:52.226Z,16.48
2022-12-14T02:58:35.072Z,17.60
2022-12-14T03:01:02.820Z,14.75
2022-12-14T03:03:29.919Z,17.52
2022-12-14T03:06:14.918Z,14.57
2022-12-14T03:08:46.079Z,16.52
2022-12-14T03:11:20.375Z,12.52
2022-12-14T03:14:05.466Z,16.23
2022-12-14T03:16:40.609Z,15.50
2022-12-14T03:19:18.041Z,14.38
2022-12-14T03:21:50.994Z,15.40
2022-12-14T03:24:24.995Z,15.40
2022-12-14T03:27:00.877Z,16.42
2022-12-14T03:29:32.663Z,17.35
2022-12-14T03:32:07.550Z,15.13
2022-12-14T03:34:42.767Z,14.05
2022-12-14T03:37:20.800Z,14.95
2022-12-14T03:39:48.769Z,14.07
2022-12-14T03:42:28.579Z,19.45
2022-12-14T03:45:05.104Z,16.63
2022-12-14T03:47:44.322Z,12.45
2022-12-14T03:50:33.187Z,15.00
2022-12-14T03:53:11.027Z,13.15
2022-12-14T03:55:49.206Z,13.70
2022-12-14T03:58:36.746Z,13.00
2022-12-14T04:01:25.538Z,14.65
2022-12-14T04:04:13.114Z,17.77
2022-12-14T04:06:42.967Z,14.10
2022-12-14T04:09:16.456Z,13.85
2022-12-14T04:12:10.085Z,15.23
2022-12-14T04:15:04.628Z,14.73
2022-12-14T04:17:54.341Z,13.63
2022-12-14T04:20:29.917Z,14.20
2022-12-14T04:23:06.934Z,13.43
2022-12-14T04:25:56.626Z,13.02
2022-12-14T04:28:45.778Z,14.38
2022-12-14T04:31:19.354Z,14.00
2022-12-14T04:33:53.569Z,13.75
2022-12-14T04:36:42.703Z,12.65
2022-12-14T04:39:15.126Z,15.93
2022-12-14T04:41:47.433Z,11.38
2022-12-14T04:44:22.733Z,15.40
2022-12-14T04:46:53.192Z,13.88
2022-12-14T04:49:23.286Z,14.75
2022-12-14T04:52:13.018Z,14.15
2022-12-14T04:54:48.764Z,13.15
2022-12-14T04:57:36.693Z,15.10
2022-12-14T05:00:05.806Z,13.48
2022-12-14T05:02:35.514Z,15.10
2022-12-14T05:05:03.361Z,14.68
2022-12-14T05:07:50.103Z,14.27
2022-12-14T05:10:31.027Z,14.88
2022-12-14T05:13:08.866Z,13.82
2022-12-14T05:15:49.289Z,14.43
2022-12-14T05:18:17.515Z,13.00
2022-12-14T05:20:46.731Z,15.85
2022-12-14T05:23:14.035Z,15.32
2022-12-14T05:25:41.004Z,12.82
2022-12-14T05:28:08.326Z,15.98
2022-12-14T05:30:35.479Z,14.82
2022-12-14T05:33:02.627Z,14.25
2022-12-14T05:35:29.693Z,12.65
2022-12-14T05:37:56.598Z,15.15
2022-12-14T05:40:23.987Z,14.77
2022-12-14T05:42:55.662Z,12.02
2022-12-14T05:45:23.053Z,15.50
2022-12-14T05:47:49.897Z,16.35
2022-12-14T05:50:16.921Z,18.85
2022-12-14T05:52:43.864Z,15.52
2022-12-14T05:55:10.830Z,15.18
2022-12-14T05:57:37.687Z,15.30
2022-12-14T06:00:05.864Z,15.23
2022-12-14T06:02:32.876Z,15.05
2022-12-14T06:04:59.804Z,15.45
2022-12-14T06:07:28.299Z,37.70
2022-12-14T06:09:57.289Z,29.52
2022-12-14T06:12:24.954Z,20.55
2022-12-14T06:14:52.012Z,16.85
2022-12-14T06:17:19.005Z,14.38
2022-12-14T06:19:50.417Z,16.90
2022-12-14T06:22:18.492Z,17.75
2022-12-14T06:24:45.618Z,20.30
2022-12-14T06:27:13.471Z,18.45
2022-12-14T06:29:40.924Z,32.30
2022-12-14T06:32:07.949Z,43.25
2022-12-14T06:34:39.001Z,25.17
2022-12-14T06:37:07.954Z,19.38
2022-12-14T06:39:35.313Z,15.25
2022-12-14T06:42:03.510Z,14.90
2022-12-14T06:44:31.027Z,15.98
2022-12-14T06:46:58.143Z,19.38
2022-12-14T06:49:25.289Z,17.42
2022-12-14T06:51:52.640Z,18.02
2022-12-14T06:54:20.005Z,15.70
2022-12-14T06:56:48.341Z,16.55
2022-12-14T06:59:16.860Z,15.88
2022-12-14T07:01:44.219Z,16.27
2022-12-14T07:04:12.054Z,16.90
2022-12-14T07:06:41.049Z,15.70
2022-12-14T07:09:11.783Z,16.27
2022-12-14T07:11:39.530Z,19.58
2022-12-14T07:14:07.394Z,13.93
2022-12-14T07:16:37.016Z,17.40
2022-12-14T07:19:04.956Z,17.73
2022-12-14T07:21:32.934Z,15.38
2022-12-14T07:24:01.417Z,18.08
2022-12-14T07:26:29.328Z,18.70
2022-12-14T07:28:59.208Z,18.60
2022-12-14T07:31:28.763Z,17.60
2022-12-14T07:33:58.398Z,18.25
2022-12-14T07:36:27.552Z,18.02
2022-12-14T07:38:58.469Z,20.10
2022-12-14T07:41:28.372Z,18.38
2022-12-14T07:43:56.709Z,17.52
2022-12-14T07:46:26.951Z,18.25
2022-12-14T07:48:56.141Z,23.23
2022-12-14T07:51:26.534Z,56.78
2022-12-14T07:53:55.204Z,45.33
2022-12-14T07:56:34.788Z,43.55
2022-12-14T07:59:03.438Z,43.40
2022-12-14T08:01:34.361Z,54.42
2022-12-14T08:04:09.076Z,32.05
2022-12-14T08:06:38.143Z,27.17
2022-12-14T08:09:07.290Z,22.38
2022-12-14T08:11:35.653Z,20.05
2022-12-14T08:14:05.428Z,18.88
2022-12-14T08:16:33.562Z,19.73
2022-12-14T08:19:01.713Z,20.63
2022-12-14T08:21:29.365Z,16.65
2022-12-14T08:23:57.663Z,17.35
2022-12-14T08:26:31.560Z,19.10
2022-12-14T08:29:02.565Z,19.30
2022-12-14T08:31:30.179Z,20.70
2022-12-14T08:34:00.218Z,18.00
2022-12-14T08:36:30.597Z,17.27
2022-12-14T08:39:00.673Z,18.05
2022-12-14T08:41:29.050Z,19.25
2022-12-14T08:43:58.706Z,20.23
2022-12-14T08:46:28.182Z,16.23
2022-12-14T08:48:55.755Z,18.00
2022-12-14T08:51:23.958Z,21.17
2022-12-14T08:53:52.270Z,19.73
2022-12-14T08:56:22.523Z,19.77
2022-12-14T08:58:49.907Z,17.92
2022-12-14T09:01:20.803Z,19.77
2022-12-14T09:03:48.719Z,19.52
2022-12-14T09:06:22.994Z,18.35
2022-12-14T09:08:51.103Z,19.05
2022-12-14T09:11:19.827Z,21.20
2022-12-14T09:13:47.535Z,18.30
2022-12-14T09:16:20.617Z,21.05
2022-12-14T09:18:48.893Z,21.98
2022-12-14T09:21:18.222Z,24.02
2022-12-14T09:23:46.208Z,25.17
2022-12-14T09:26:15.850Z,28.50
2022-12-14T09:28:46.299Z,24.38
2022-12-14T09:31:19.039Z,18.92
2022-12-14T09:33:46.912Z,19.45
2022-12-14T09:36:20.723Z,22.40
2022-12-14T09:38:52.022Z,25.65
2022-12-14T09:41:43.172Z,22.55
2022-12-14T09:44:49.314Z,20.35
2022-12-14T09:47:39.668Z,23.08
2022-12-14T09:50:21.388Z,22.45
2022-12-14T09:52:56.522Z,26.13
2022-12-14T09:55:43.038Z,33.05
2022-12-14T09:58:31.380Z,51.50
2022-12-14T10:01:22.131Z,60.40
2022-12-14T10:04:01.681Z,150.88
2022-12-14T10:06:32.579Z,123.55
2022-12-14T10:09:22.920Z,136.95
2022-12-14T10:12:11.897Z,91.57
2022-12-14T10:14:58.950Z,88.78
2022-12-14T10:17:50.973Z,63.03
2022-12-14T10:20:30.982Z,74.63
2022-12-14T10:23:00.464Z,73.40
2022-12-14T10:25:34.511Z,40.05
2022-12-14T10:28:17.886Z,31.25
2022-12-14T10:30:48.410Z,25.92
2022-12-14T10:33:46.032Z,21.80
2022-12-14T10:36:34.330Z,19.48
2022-12-14T10:39:06.565Z,20.95
2022-12-14T10:41:55.376Z,16.85
2022-12-14T10:45:04.184Z,17.45
2022-12-14T10:47:47.930Z,17.77
2022-12-14T10:50:36.981Z,20.70
2022-12-14T10:53:07.281Z,16.85
2022-12-14T10:55:40.145Z,20.75
2022-12-14T10:58:07.339Z,18.35
2022-12-14T11:00:34.858Z,18.17
2022-12-14T11:03:04.776Z,18.42
2022-12-14T11:05:37.217Z,17.52
2022-12-14T11:08:07.418Z,18.10
2022-12-14T11:10:36.330Z,16.55
2022-12-14T11:13:15.026Z,16.33
2022-12-14T11:15:43.409Z,21.75
2022-12-14T11:18:16.701Z,18.00
2022-12-14T11:20:54.914Z,17.67
2022-12-14T11:23:40.166Z,21.10
2022-12-14T11:26:20.892Z,17.33
2022-12-14T11:28:50.388Z,17.85
2022-12-14T11:31:20.676Z,18.30
2022-12-14T11:33:50.006Z,17.95
2022-12-14T11:36:26.296Z,18.77
2022-12-14T11:38:58.458Z,21.27
2022-12-14T11:41:32.384Z,21.80
2022-12-14T11:44:20.187Z,22.08
2022-12-14T11:47:00.337Z,20.42
2022-12-14T11:49:33.737Z,17.15
2022-12-14T11:52:05.555Z,21.58
2022-12-14T11:54:34.011Z,23.67
2022-12-14T11:57:03.921Z,22.95
2022-12-14T12:00:08.037Z,21.05
2022-12-14T12:02:55.824Z,22.25
2022-12-14T12:05:23.721Z,20.17
2022-12-14T12:07:50.772Z,20.85
2022-12-14T12:10:22.201Z,23.38
2022-12-14T12:12:57.345Z,24.65
2022-12-14T12:15:40.263Z,24.73
2022-12-14T12:18:39.281Z,23.30
2022-12-14T12:21:15.599Z,25.85
2022-12-14T12:23:54.186Z,29.35
2022-12-14T12:26:29.363Z,27.70
2022-12-14T12:29:13.814Z,25.10
2022-12-14T12:32:02.674Z,21.02
2022-12-14T12:34:39.092Z,24.05
2022-12-14T12:37:28.972Z,19.00
2022-12-14T12:40:21.088Z,22.77
2022-12-14T12:43:00.225Z,23.15
2022-12-14T12:45:33.303Z,21.42
2022-12-14T12:48:38.854Z,19.88
2022-12-14T12:51:44.279Z,23.30
2022-12-14T12:54:21.664Z,22.40
2022-12-14T12:56:52.452Z,18.48
2022-12-14T12:59:25.888Z,22.88
2022-12-14T13:01:57.571Z,19.45
2022-12-14T13:04:40.712Z,24.35
2022-12-14T13:07:43.997Z,22.95
2022-12-14T13:10:23.558Z,20.08
2022-12-14T13:13:04.498Z,22.90
2022-12-14T13:15:37.268Z,22.25
2022-12-14T13:18:48.896Z,18.90
2022-12-14T13:21:37.066Z,26.20
2022-12-14T13:24:06.618Z,24.58
2022-12-14T13:27:05.273Z,21.70
2022-12-14T13:29:32.298Z,22.27
2022-12-14T13:32:06.319Z,22.25
2022-12-14T13:34:55.585Z,20.67
2022-12-14T13:37:42.707Z,23.42
2022-12-14T13:40:35.696Z,21.73
2022-12-14T13:43:11.339Z,24.92
2022-12-14T13:45:43.279Z,20.95
2022-12-14T13:48:28.863Z,20.45
2022-12-14T13:51:09.558Z,24.80
2022-12-14T13:53:50.273Z,21.40
2022-12-14T13:56:33.314Z,22.88
2022-12-14T13:59:04.517Z,20.58
2022-12-14T14:01:46.974Z,22.58
2022-12-14T14:04:17.109Z,19.92
2022-12-14T14:06:47.456Z,25.42
2022-12-14T14:09:29.988Z,30.08
2022-12-14T14:12:33.724Z,26.85
2022-12-14T14:15:21.186Z,26.13
2022-12-14T14:17:57.696Z,29.25
2022-12-14T14:20:32.077Z,27.65
2022-12-14T14:23:20.214Z,24.65
2022-12-14T14:26:16.330Z,23.55
2022-12-14T14:28:49.455Z,21.95
2022-12-14T14:31:17.186Z,24.65
2022-12-14T14:33:50.050Z,24.08
2022-12-14T14:36:20.089Z,36.03
2022-12-14T14:38:47.799Z,39.65
2022-12-14T14:41:32.119Z,29.90
2022-12-14T14:44:03.436Z,31.05
2022-12-14T14:46:39.235Z,26.98
2022-12-14T14:49:17.686Z,25.30
2022-12-14T14:51:45.052Z,24.38
2022-12-14T14:54:53.984Z,27.40
2022-12-14T14:57:35.684Z,23.45
2022-12-14T15:00:05.158Z,27.45
2022-12-14T15:02:40.267Z,28.63
2022-12-14T15:05:41.652Z,31.00
2022-12-14T15:10:39.613Z,25.63
2022-12-14T15:13:16.650Z,26.25
2022-12-14T15:15:46.672Z,25.58
2022-12-14T15:18:24.385Z,24.73
2022-12-14T15:21:01.566Z,22.35
2022-12-14T15:23:36.837Z,27.98
2022-12-14T15:26:16.266Z,21.95
2022-12-14T15:28:48.631Z,22.65
2022-12-14T15:31:16.005Z,31.33
2022-12-14T15:33:44.807Z,31.98
2022-12-14T15:36:16.036Z,29.17
2022-12-14T15:38:52.208Z,29.67
2022-12-14T15:41:20.964Z,27.30
2022-12-14T15:43:50.222Z,26.85
2022-12-14T15:46:30.821Z,27.23
2022-12-14T15:49:00.109Z,24.63
2022-12-14T15:51:47.826Z,24.45
2022-12-14T15:54:26.593Z,22.00
2022-12-14T15:56:56.793Z,25.80
2022-12-14T15:59:32.393Z,21.70
2022-12-14T16:02:26.160Z,20.55
2022-12-14T16:04:54.118Z,23.52
2022-12-14T16:07:42.571Z,22.48
2022-12-14T16:10:33.388Z,24.80
2022-12-14T16:13:09.201Z,24.95
2022-12-14T16:15:36.498Z,26.52
2022-12-14T16:18:04.504Z,26.95
2022-12-14T16:20:37.070Z,25.92
2022-12-14T16:23:15.088Z,23.40
2022-12-14T16:26:03.258Z,24.92
2022-12-14T16:28:35.159Z,23.60
2022-12-14T16:31:16.746Z,25.38
2022-12-14T16:33:44.727Z,21.10
2022-12-14T16:36:21.078Z,22.90
2022-12-14T16:39:00.541Z,23.05
2022-12-14T16:41:39.652Z,18.15
2022-12-14T16:44:09.531Z,19.38
2022-12-14T16:46:36.930Z,20.55
2022-12-14T16:49:29.163Z,21.45
2022-12-14T16:52:09.378Z,20.95
2022-12-14T16:54:38.239Z,22.70
2022-12-14T16:57:20.701Z,22.48
2022-12-14T16:59:57.370Z,24.55
2022-12-14T17:02:35.119Z,21.83
2022-12-14T17:05:18.568Z,22.73
2022-12-14T17:07:45.924Z,20.23
2022-12-14T17:10:24.104Z,22.00
2022-12-14T17:12:55.717Z,20.10
2022-12-14T17:15:25.015Z,23.45
2022-12-14T17:17:53.540Z,21.35
2022-12-14T17:20:30.046Z,21.58
2022-12-14T17:22:59.152Z,23.77
2022-12-14T17:25:28.017Z,25.80
2022-12-14T17:27:55.492Z,22.00
2022-12-14T17:30:26.406Z,21.25
2022-12-14T17:32:55.222Z,25.20
2022-12-14T17:35:25.007Z,25.10
2022-12-14T17:37:52.818Z,24.73
2022-12-14T17:40:20.202Z,24.10
2022-12-14T17:42:53.388Z,26.17
2022-12-14T17:45:24.559Z,29.40
2022-12-14T17:47:56.366Z,26.65
2022-12-14T17:50:25.414Z,24.75
2022-12-14T17:52:52.753Z,26.33
2022-12-14T17:55:26.573Z,25.17
2022-12-14T17:57:54.602Z,23.67
2022-12-14T18:00:45.450Z,27.30
2022-12-14T18:03:14.266Z,19.20
2022-12-14T18:05:48.401Z,19.58
2022-12-14T18:08:23.522Z,20.02
2022-12-14T18:10:55.589Z,21.15
2022-12-14T18:13:22.904Z,21.15
2022-12-14T18:15:51.929Z,24.40
2022-12-14T18:18:25.640Z,23.13
2022-12-14T18:20:55.058Z,24.00
2022-12-14T18:23:24.081Z,21.15
2022-12-14T18:25:56.317Z,22.45
2022-12-14T18:28:25.267Z,26.80
2022-12-14T18:30:58.907Z,27.35
2022-12-14T18:33:28.027Z,24.13
2022-12-14T18:35:57.274Z,23.88
2022-12-14T18:38:25.050Z,27.23
2022-12-14T18:40:55.096Z,26.48
2022-12-14T18:43:24.370Z,26.15
2022-12-14T18:45:54.074Z,25.42
2022-12-14T18:48:22.428Z,24.33
2022-12-14T18:50:50.635Z,24.08
2022-12-14T18:53:20.881Z,23.00
2022-12-14T18:55:49.053Z,25.45
2022-12-14T18:58:19.086Z,22.67
2022-12-14T19:00:48.437Z,26.50
2022-12-14T19:03:15.652Z,22.88
2022-12-14T19:05:43.932Z,22.60
2022-12-14T19:08:11.521Z,25.55
2022-12-14T19:10:41.192Z,22.75
2022-12-14T19:13:14.695Z,23.80
2022-12-14T19:15:42.225Z,23.60
2022-12-14T19:18:09.200Z,24.42
2022-12-14T19:20:36.286Z,25.30
2022-12-14T19:23:04.532Z,25.27
2022-12-14T19:25:31.902Z,25.48
2022-12-14T19:28:30.416Z,20.23
2022-12-14T19:30:47.793Z,22.77
2022-12-14T19:33:14.935Z,23.23
2022-12-14T19:35:42.868Z,18.92
2022-12-14T19:38:14.223Z,29.88
2022-12-14T19:40:46.576Z,28.20
2022-12-14T19:43:14.833Z,25.52
2022-12-14T19:45:42.196Z,24.17
2022-12-14T19:48:13.142Z,25.10
2022-12-14T19:50:40.641Z,24.08
2022-12-14T19:53:07.715Z,23.38
2022-12-14T19:55:35.916Z,26.58
2022-12-14T19:58:04.013Z,23.35
2022-12-14T20:00:32.216Z,25.17
2022-12-14T20:03:01.036Z,26.92
2022-12-14T20:05:28.965Z,27.80
2022-12-14T20:07:56.102Z,25.55
2022-12-14T20:10:24.685Z,33.42
2022-12-14T20:12:52.266Z,30.48
2022-12-14T20:15:19.217Z,28.23
2022-12-14T20:17:47.239Z,25.98
2022-12-14T20:20:14.422Z,27.90
2022-12-14T20:22:41.482Z,31.40
2022-12-14T20:25:08.868Z,28.33
2022-12-14T20:27:40.537Z,28.83
2022-12-14T20:30:08.909Z,31.23
2022-12-14T20:32:36.146Z,30.90
2022-12-14T20:35:05.518Z,28.20
2022-12-14T20:37:33.291Z,29.40
2022-12-14T20:40:00.223Z,37.00
2022-12-14T20:42:27.152Z,37.92
2022-12-14T20:44:54.072Z,30.63
2022-12-14T20:47:21.016Z,30.10
2022-12-14T20:49:47.936Z,34.38
2022-12-14T20:52:15.469Z,32.10
2022-12-14T20:54:43.515Z,28.45
2022-12-14T20:57:10.633Z,31.88
2022-12-14T20:59:37.634Z,30.17
2022-12-14T21:02:04.950Z,31.70
2022-12-14T21:04:33.365Z,30.85
2022-12-14T21:07:00.586Z,30.45
2022-12-14T21:09:27.764Z,31.20
2022-12-14T21:12:13.319Z,33.80
2022-12-14T21:14:48.184Z,33.15
2022-12-14T21:17:15.851Z,33.40
2022-12-14T21:19:43.187Z,30.85
2022-12-14T21:22:17.071Z,32.28
2022-12-14T21:27:33.725Z,38.63
2022-12-14T21:30:00.937Z,33.17
2022-12-14T21:32:29.818Z,32.95
2022-12-14T21:34:57.907Z,35.53
2022-12-14T21:37:25.095Z,32.28
2022-12-14T21:39:53.837Z,30.25
2022-12-14T21:42:24.357Z,31.95
2022-12-14T21:44:52.579Z,32.88
2022-12-14T21:47:28.229Z,35.38
2022-12-14T21:49:56.614Z,35.92
2022-12-14T21:52:26.598Z,35.05
2022-12-14T21:54:53.594Z,31.38
2022-12-14T21:57:50.581Z,33.45
2022-12-14T22:00:18.821Z,33.53
2022-12-14T22:02:45.979Z,36.03
2022-12-14T22:05:13.300Z,37.28
2022-12-14T22:07:41.052Z,39.08
2022-12-14T22:10:10.899Z,36.25
2022-12-14T22:12:37.858Z,34.70
2022-12-14T22:15:05.270Z,31.98
2022-12-14T22:17:32.259Z,33.97
2022-12-14T22:19:59.738Z,35.60
2022-12-14T22:22:27.036Z,35.33
2022-12-14T22:24:54.061Z,35.10
2022-12-14T22:27:21.276Z,34.72
2022-12-14T22:29:48.392Z,31.00
2022-12-14T22:32:15.560Z,32.35
2022-12-14T22:34:42.847Z,35.58
2022-12-14T22:37:09.878Z,36.05
2022-12-14T22:39:36.938Z,34.78
2022-12-14T22:42:05.073Z,34.28
2022-12-14T22:44:32.225Z,34.10
2022-12-14T22:46:59.182Z,32.00
2022-12-14T22:49:26.096Z,29.67
2022-12-14T22:51:53.159Z,32.28
2022-12-14T22:54:25.591Z,31.08
2022-12-14T22:57:15.488Z,30.83
2022-12-14T23:00:07.737Z,30.52
2022-12-14T23:02:35.163Z,36.03
2022-12-14T23:05:02.300Z,32.70
2022-12-14T23:07:29.290Z,32.78
2022-12-14T23:10:14.901Z,34.60
2022-12-14T23:13:00.397Z,39.13
2022-12-14T23:15:45.949Z,36.92
2022-12-14T23:18:31.561Z,32.73
2022-12-14T23:21:17.162Z,33.35
2022-12-14T23:24:04.205Z,39.53
2022-12-14T23:26:50.142Z,33.50
2022-12-14T23:29:37.050Z,32.65
2022-12-14T23:32:22.947Z,32.75
2022-12-14T23:35:08.671Z,33.60
2022-12-14T23:37:54.244Z,32.45
2022-12-14T23:40:40.231Z,39.73
2022-12-14T23:43:34.385Z,35.30
2022-12-14T23:46:21.633Z,40.95
2022-12-14T23:49:13.552Z,38.42
2022-12-14T23:52:01.276Z,34.05
2022-12-14T23:54:46.828Z,36.03
2022-12-14T23:57:32.454Z,30.92
